Time;durP1;ratioP1;P1;durP2;ratioP2;P2;SDS_P1;SDS_P2;PMS_P1;PMS_P2;Temp;Humidity;BMP_temperature;BMP_pressure;BME280_temperature;BME280_humidity;BME280_pressure;Samples;Min_cycle;Max_cycle;Signal;HPM_P1;HPM_P2
2023/10/12 00:01:58;;;;;;;5.70;3.10;;;16.90;64.30;15.80;96603.00;;;;5102957;28;20190;-78
2023/10/12 00:04:29;;;;;;;4.47;3.43;;;16.90;64.40;15.80;96599.00;;;;5102777;28;20609;-78
2023/10/12 00:06:58;;;;;;;4.13;2.97;;;16.90;64.40;15.80;96603.00;;;;5100816;28;20219;-78
2023/10/12 00:09:27;;;;;;;4.20;2.80;;;16.80;64.40;15.80;96598.00;;;;5101002;28;20186;-78
2023/10/12 00:11:58;;;;;;;4.90;3.17;;;16.80;64.40;15.70;96598.00;;;;5103768;28;20195;-78
2023/10/12 00:14:32;;;;;;;3.20;2.90;;;16.80;64.40;15.70;96595.00;;;;5110456;28;20201;-78
2023/10/12 00:17:00;;;;;;;4.80;2.77;;;16.80;64.40;15.70;96588.00;;;;5102246;28;20242;-78
2023/10/12 00:19:28;;;;;;;5.57;3.27;;;16.80;64.40;15.70;96591.00;;;;5108448;28;20199;-78
2023/10/12 00:22:00;;;;;;;4.33;3.20;;;16.80;64.40;15.70;96587.00;;;;5102862;28;20241;-78
2023/10/12 00:24:27;;;;;;;6.00;3.10;;;16.70;64.50;15.70;96584.00;;;;5107333;28;20277;-78
2023/10/12 00:26:56;;;;;;;2.77;2.57;;;16.70;64.40;15.60;96578.00;;;;5100184;28;20221;-78
2023/10/12 00:29:24;;;;;;;3.73;2.97;;;16.70;64.50;15.70;96581.00;;;;5107494;28;20187;-78
2023/10/12 00:31:55;;;;;;;3.10;2.80;;;16.70;64.50;15.60;96580.00;;;;5103027;28;20906;-79
2023/10/12 00:34:24;;;;;;;3.20;2.67;;;16.70;64.60;15.60;96573.00;;;;5107629;28;20206;-78
2023/10/12 00:36:57;;;;;;;5.73;3.07;;;16.70;64.70;15.60;96583.00;;;;5098945;28;20223;-78
2023/10/12 00:39:35;;;;;;;4.67;3.47;;;16.70;64.60;15.60;96580.00;;;;5107607;28;20191;-78
2023/10/12 00:42:02;;;;;;;2.83;2.53;;;16.70;64.70;15.60;96577.00;;;;5101297;28;20691;-78
2023/10/12 00:44:34;;;;;;;3.50;3.20;;;16.70;64.70;15.60;96572.00;;;;5108985;28;20198;-79
2023/10/12 00:47:13;;;;;;;4.03;2.87;;;16.70;64.70;15.60;96571.00;;;;5103972;28;20199;-79
2023/10/12 00:49:48;;;;;;;4.70;3.33;;;16.70;64.80;15.60;96568.00;;;;5107432;28;20201;-78
2023/10/12 00:52:23;;;;;;;3.90;2.90;;;16.70;64.80;15.60;96561.00;;;;5097998;28;20569;-79
2023/10/12 00:55:02;;;;;;;3.60;2.80;;;16.70;64.70;15.60;96560.00;;;;5106983;28;20682;-78
2023/10/12 00:57:31;;;;;;;4.37;2.27;;;16.60;64.70;15.50;96557.00;;;;5106284;27;20191;-78
2023/10/12 01:00:07;;;;;;;3.10;2.77;;;16.60;64.60;15.50;96554.00;;;;5107064;28;20543;-78
2023/10/12 01:02:39;;;;;;;3.30;2.43;;;16.60;64.70;15.50;96557.00;;;;5100277;28;20191;-78
2023/10/12 01:05:09;;;;;;;4.77;2.60;;;16.60;64.70;15.50;96547.00;;;;5098050;28;20295;-78
2023/10/12 01:07:37;;;;;;;3.53;2.50;;;16.60;64.80;15.50;96547.00;;;;5100988;28;20655;-78
2023/10/12 01:10:08;;;;;;;2.57;2.37;;;16.60;64.70;15.50;96543.00;;;;5105988;28;20218;-78
2023/10/12 01:12:37;;;;;;;3.97;2.93;;;16.60;64.70;15.50;96543.00;;;;5106843;28;20206;-78
2023/10/12 01:15:09;;;;;;;3.77;2.37;;;16.60;64.70;15.50;96543.00;;;;5106119;28;20625;-78
2023/10/12 01:17:36;;;;;;;3.57;2.30;;;16.60;64.70;15.50;96543.00;;;;5099858;28;20256;-78
2023/10/12 01:20:16;;;;;;;2.67;2.47;;;16.60;64.60;15.50;96543.00;;;;5105616;28;20223;-78
2023/10/12 01:22:47;;;;;;;3.10;2.73;;;16.50;64.60;15.40;96530.00;;;;5098430;28;20678;-78
2023/10/12 01:25:21;;;;;;;3.37;2.33;;;16.60;64.70;15.40;96535.00;;;;5103314;28;20210;-78
2023/10/12 01:27:49;;;;;;;3.60;2.63;;;16.50;64.70;15.40;96537.00;;;;5095706;28;20225;-79
2023/10/12 01:30:21;;;;;;;2.67;2.47;;;16.50;64.70;15.40;96545.00;;;;5101678;28;20647;-78
2023/10/12 01:32:53;;;;;;;3.80;2.80;;;16.50;64.70;15.40;96544.00;;;;5103506;28;20221;-78
2023/10/12 01:35:27;;;;;;;4.67;2.63;;;16.50;64.70;15.40;96550.00;;;;5094958;28;20210;-78
2023/10/12 01:38:01;;;;;;;3.13;2.67;;;16.50;64.70;15.40;96535.00;;;;5100094;28;20194;-78
2023/10/12 01:40:41;;;;;;;2.60;2.17;;;16.50;64.70;15.40;96539.00;;;;5106872;28;20196;-80
2023/10/12 01:43:12;;;;;;;3.73;2.60;;;16.50;64.70;15.40;96545.00;;;;5107144;28;20659;-78
2023/10/12 01:45:42;;;;;;;2.33;2.10;;;16.50;65.50;15.30;96546.00;;;;5103250;28;20211;-78
2023/10/12 01:48:11;;;;;;;3.73;2.63;;;16.40;64.80;15.30;96549.00;;;;5097638;28;20202;-79
2023/10/12 01:50:39;;;;;;;3.43;2.47;;;16.40;64.90;15.30;96557.00;;;;5104853;28;20225;-78
2023/10/12 01:53:23;;;;;;;2.63;2.30;;;16.40;64.80;15.30;96547.00;;;;5102421;28;20191;-78
2023/10/12 01:55:52;;;;;;;2.53;2.30;;;16.40;64.90;15.30;96545.00;;;;5102984;28;20223;-79
2023/10/12 01:58:20;;;;;;;2.57;2.20;;;16.40;64.80;15.30;96547.00;;;;5103803;27;20659;-80
2023/10/12 02:00:52;;;;;;;2.73;2.00;;;16.40;64.80;15.30;96549.00;;;;5104293;28;20199;-78
2023/10/12 02:03:26;;;;;;;3.20;2.30;;;16.40;64.90;15.30;96547.00;;;;5100438;28;20243;-78
2023/10/12 02:05:59;;;;;;;2.30;2.10;;;16.40;64.90;15.30;96550.00;;;;5101539;28;20298;-78
2023/10/12 02:08:35;;;;;;;2.83;2.30;;;16.40;65.00;15.20;96540.00;;;;5104172;28;20567;-78
2023/10/12 02:11:11;;;;;;;2.30;2.10;;;16.40;65.00;15.30;96546.00;;;;5103927;28;20191;-78
2023/10/12 02:13:41;;;;;;;2.83;2.27;;;16.40;64.90;15.20;96547.00;;;;5104621;28;20239;-78
2023/10/12 02:16:12;;;;;;;2.37;2.13;;;16.40;64.90;15.20;96544.00;;;;5105033;28;20219;-78
2023/10/12 02:18:40;;;;;;;2.43;2.23;;;16.30;64.90;15.20;96549.00;;;;5098892;28;20195;-78
2023/10/12 02:21:11;;;;;;;2.93;2.00;;;16.30;64.90;15.20;96554.00;;;;5104093;28;20265;-79
2023/10/12 02:23:54;;;;;;;2.20;2.00;;;16.30;64.80;15.20;96541.00;;;;5101937;28;20194;-78
2023/10/12 02:26:31;;;;;;;4.63;2.43;;;16.30;64.80;15.20;96554.00;;;;5098006;28;20610;-78
2023/10/12 02:29:11;;;;;;;3.13;2.47;;;16.30;64.70;15.10;96548.00;;;;5077798;28;20198;-78
2023/10/12 02:31:46;;;;;;;2.67;2.47;;;16.30;64.70;15.10;96549.00;;;;5102032;28;20273;-78
2023/10/12 02:34:17;;;;;;;2.30;2.10;;;16.30;64.80;15.10;96550.00;;;;5106002;28;20194;-78
2023/10/12 02:37:00;;;;;;;2.90;2.60;;;16.30;64.80;15.10;96553.00;;;;5098936;28;20255;-78
2023/10/12 02:39:29;;;;;;;2.20;2.00;;;16.20;64.70;15.10;96556.00;;;;5101686;28;20558;-78
2023/10/12 02:42:10;;;;;;;2.67;2.30;;;16.20;64.80;15.10;96552.00;;;;5102707;28;20604;-78
2023/10/12 02:44:42;;;;;;;3.77;2.40;;;16.20;64.80;15.10;96554.00;;;;5105385;28;20219;-78
2023/10/12 02:47:12;;;;;;;11.67;2.50;;;16.20;64.90;15.00;96560.00;;;;5095742;28;20199;-78
2023/10/12 02:49:41;;;;;;;2.80;2.40;;;16.20;64.90;15.00;96559.00;;;;5098008;28;20233;-78
2023/10/12 02:52:08;;;;;;;2.20;2.00;;;16.20;64.90;15.00;96563.00;;;;5102698;28;20249;-78
2023/10/12 02:54:49;;;;;;;2.30;2.10;;;16.10;64.80;15.00;96553.00;;;;5104974;28;20197;-78
2023/10/12 02:57:20;;;;;;;2.63;2.20;;;16.10;65.00;15.00;96560.00;;;;5096156;28;20245;-78
2023/10/12 02:59:56;;;;;;;2.93;2.27;;;16.20;65.70;15.00;96559.00;;;;5103286;28;20191;-78
2023/10/12 03:02:32;;;;;;;3.07;2.27;;;16.10;65.00;15.00;96557.00;;;;5100174;28;20627;-78
2023/10/12 03:05:01;;;;;;;2.30;2.10;;;16.10;65.70;14.90;96563.00;;;;5100588;28;20225;-78
2023/10/12 03:07:28;;;;;;;2.30;2.10;;;16.10;64.90;14.90;96558.00;;;;5094943;28;20198;-78
2023/10/12 03:09:59;;;;;;;2.90;2.13;;;16.10;65.00;14.90;96555.00;;;;5094164;28;20203;-78
2023/10/12 03:12:35;;;;;;;3.80;2.10;;;16.10;65.00;14.90;96555.00;;;;5104112;28;20537;-78
2023/10/12 03:15:12;;;;;;;3.03;1.80;;;16.00;65.00;14.90;96549.00;;;;5095762;28;20238;-79
2023/10/12 03:17:52;;;;;;;3.80;2.10;;;16.00;65.00;14.90;96556.00;;;;5101430;28;20221;-75
2023/10/12 03:20:22;;;;;;;3.23;2.20;;;16.00;65.00;14.90;96560.00;;;;5098974;28;20191;-78
2023/10/12 03:22:53;;;;;;;2.30;2.10;;;16.00;65.00;14.80;96558.00;;;;5094463;28;20199;-78
2023/10/12 03:25:37;;;;;;;4.63;2.33;;;16.00;65.10;14.80;96560.00;;;;5095005;28;20651;-78
2023/10/12 03:28:12;;;;;;;4.17;2.23;;;16.00;65.10;14.80;96561.00;;;;5098234;28;20204;-78
2023/10/12 03:30:52;;;;;;;2.77;2.03;;;15.90;65.00;14.80;96561.00;;;;5104314;28;20190;-78
2023/10/12 03:33:26;;;;;;;4.97;2.70;;;15.90;65.00;14.70;96558.00;;;;5094249;28;20654;-78
2023/10/12 03:35:57;;;;;;;2.83;2.20;;;15.90;64.90;14.70;96561.00;;;;5102592;28;20211;-78
2023/10/12 03:38:25;;;;;;;2.57;2.10;;;15.90;64.90;14.70;96554.00;;;;5102445;28;20198;-78
2023/10/12 03:41:46;;;;;;;3.13;1.97;;;15.90;65.00;14.70;96558.00;;;;5099327;28;20196;-78
2023/10/12 03:43:40;;;;;;;3.03;2.30;;;15.80;65.00;14.70;96553.00;;;;5100754;28;20659;-78
2023/10/12 03:46:17;;;;;;;3.03;2.07;;;15.90;65.00;14.60;96548.00;;;;5104519;28;20250;-78
2023/10/12 03:49:04;;;;;;;2.80;2.20;;;15.80;64.90;14.60;96546.00;;;;5101632;28;20285;-78
2023/10/12 03:51:40;;;;;;;3.30;2.00;;;15.80;65.00;14.60;96538.00;;;;5098390;28;20199;-78
2023/10/12 03:54:18;;;;;;;4.40;2.50;;;15.80;65.00;14.50;96541.00;;;;5104949;28;20199;-79
2023/10/12 03:56:48;;;;;;;2.67;2.10;;;15.80;65.00;14.50;96541.00;;;;5101028;28;20236;-78
2023/10/12 03:59:19;;;;;;;3.43;2.17;;;15.70;65.00;14.50;96534.00;;;;5107172;28;20203;-78
2023/10/12 04:01:47;;;;;;;3.10;2.17;;;15.70;65.10;14.50;96543.00;;;;5092146;28;20207;-78
2023/10/12 04:04:21;;;;;;;3.17;2.20;;;15.70;65.10;14.50;96542.00;;;;5101885;28;20226;-78
2023/10/12 04:07:04;;;;;;;2.57;2.27;;;15.70;65.10;14.50;96542.00;;;;5093601;28;20259;-78
2023/10/12 04:09:42;;;;;;;3.23;2.90;;;15.70;65.10;14.50;96543.00;;;;5096204;28;20199;-78
2023/10/12 04:12:30;;;;;;;2.20;1.87;;;15.60;65.70;14.40;96540.00;;;;5102116;28;20652;-78
2023/10/12 04:14:57;;;;;;;2.17;1.97;;;15.70;65.10;14.40;96540.00;;;;5098898;28;20211;-78
2023/10/12 04:20:22;;;;;;;2.60;2.30;;;15.60;65.10;14.40;96540.00;;;;5094226;28;20279;-78
2023/10/12 04:25:49;;;;;;;2.63;2.33;;;15.50;65.00;14.30;96540.00;;;;5036162;28;20225;-78
2023/10/12 04:28:24;;;;;;;3.10;2.67;;;15.60;65.10;14.30;96528.00;;;;5078562;28;20195;-78
2023/10/12 04:33:50;;;;;;;2.53;2.33;;;15.50;65.30;14.30;96530.00;;;;5102237;28;20295;-78
2023/10/12 04:36:33;;;;;;;2.53;2.33;;;15.50;65.20;14.30;96535.00;;;;5095580;28;20210;-78
2023/10/12 04:39:11;;;;;;;2.83;2.10;;;15.50;65.30;14.20;96533.00;;;;5100216;28;20290;-78
2023/10/12 04:41:42;;;;;;;5.03;2.73;;;15.50;65.40;14.20;96536.00;;;;5087713;28;20226;-78
2023/10/12 04:46:59;;;;;;;2.70;2.50;;;15.40;65.60;14.20;96536.00;;;;5093003;28;20227;-78
2023/10/12 04:52:17;;;;;;;2.63;2.00;;;15.40;66.50;14.20;96537.00;;;;5088742;28;20186;-78
2023/10/12 04:57:34;;;;;;;2.50;2.00;;;15.40;65.90;14.20;96546.00;;;;5101268;28;20689;-78
2023/10/12 05:00:24;;;;;;;2.90;2.43;;;15.40;65.90;14.20;96542.00;;;;5085445;28;20223;-78
2023/10/12 05:03:23;;;;;;;2.83;2.30;;;15.40;66.00;14.20;96548.00;;;;5104778;28;20199;-78
2023/10/12 05:08:33;;;;;;;2.77;2.23;;;15.40;66.00;14.20;96543.00;;;;5098916;28;20209;-78
2023/10/12 05:11:00;;;;;;;3.67;2.23;;;15.40;66.10;14.20;96543.00;;;;5104522;28;20190;-78
2023/10/12 05:13:28;;;;;;;2.47;1.87;;;15.40;66.30;14.20;96540.00;;;;5106349;28;20187;-78
2023/10/12 05:16:03;;;;;;;3.03;2.23;;;15.40;66.30;14.20;96531.00;;;;5098900;28;20215;-78
2023/10/12 05:18:32;;;;;;;2.83;2.20;;;15.40;66.40;14.20;96541.00;;;;5102757;28;20210;-83
2023/10/12 05:21:01;;;;;;;2.47;2.20;;;15.40;66.40;14.30;96540.00;;;;5097717;28;20195;-83
2023/10/12 05:23:29;;;;;;;2.03;1.80;;;15.40;66.40;14.30;96540.00;;;;5103714;28;20255;-83
2023/10/12 05:26:09;;;;;;;2.50;2.03;;;15.40;66.50;14.30;96545.00;;;;5105432;28;20243;-83
2023/10/12 05:29:18;;;;;;;2.70;2.20;;;15.40;66.60;14.30;96543.00;;;;5104236;28;20203;-83
2023/10/12 05:32:05;;;;;;;3.30;2.27;;;15.40;66.60;14.30;96550.00;;;;5097945;28;20212;-83
2023/10/12 05:34:44;;;;;;;2.73;2.10;;;15.40;66.50;14.30;96548.00;;;;5104361;28;20654;-83
2023/10/12 05:37:24;;;;;;;3.33;2.30;;;15.50;67.30;14.30;96553.00;;;;5097126;28;20222;-82
2023/10/12 05:39:54;;;;;;;4.70;2.60;;;15.50;66.70;14.30;96556.00;;;;5103904;28;20195;-81
2023/10/12 05:42:23;;;;;;;2.73;2.37;;;15.50;66.70;14.30;96560.00;;;;5095519;28;20193;-83
2023/10/12 05:44:53;;;;;;;3.43;2.60;;;15.50;66.80;14.40;96552.00;;;;5094146;28;20223;-81
2023/10/12 05:47:28;;;;;;;6.57;2.57;;;15.50;66.90;14.40;96558.00;;;;5090683;28;20623;-83
2023/10/12 05:49:57;;;;;;;3.87;2.50;;;15.50;67.00;14.40;96558.00;;;;5091191;28;20203;-83
2023/10/12 05:52:25;;;;;;;3.73;2.43;;;15.50;67.10;14.40;96559.00;;;;5103637;28;20191;-83
2023/10/12 05:54:57;;;;;;;3.97;2.63;;;15.60;67.20;14.50;96573.00;;;;5098876;28;20199;-82
2023/10/12 05:57:29;;;;;;;3.33;2.60;;;15.60;67.30;14.50;96573.00;;;;5101833;28;20214;-83
2023/10/12 05:59:58;;;;;;;3.03;2.30;;;15.60;67.30;14.50;96577.00;;;;5097431;28;20203;-82
2023/10/12 06:02:28;;;;;;;2.50;2.23;;;15.60;68.20;14.50;96577.00;;;;5102942;28;20299;-82
2023/10/12 06:04:56;;;;;;;4.03;2.67;;;15.70;67.70;14.60;96585.00;;;;5099276;28;20219;-82
2023/10/12 06:07:24;;;;;;;3.00;2.70;;;15.70;67.80;14.60;96581.00;;;;5103067;28;20201;-82
2023/10/12 06:09:53;;;;;;;4.57;2.40;;;15.70;67.90;14.60;96586.00;;;;5104635;28;20667;-82
2023/10/12 06:12:24;;;;;;;2.97;2.27;;;15.70;68.00;14.70;96584.00;;;;5095626;28;20187;-83
2023/10/12 06:14:54;;;;;;;2.90;2.57;;;15.80;68.20;14.70;96597.00;;;;5091762;28;20763;-81
2023/10/12 06:17:30;;;;;;;4.17;2.43;;;15.80;68.30;14.80;96597.00;;;;5103388;28;20214;-82
2023/10/12 06:20:10;;;;;;;3.80;2.50;;;15.80;68.40;14.80;96601.00;;;;5100094;28;20191;-82
2023/10/12 06:22:38;;;;;;;3.37;2.20;;;15.90;68.60;14.90;96608.00;;;;5097698;28;20186;-83
2023/10/12 06:25:10;;;;;;;2.97;2.37;;;15.90;68.60;14.90;96617.00;;;;5102266;28;20308;-83
2023/10/12 06:27:38;;;;;;;2.93;2.50;;;16.00;68.70;14.90;96614.00;;;;5102915;28;20706;-82
2023/10/12 06:30:16;;;;;;;4.33;2.30;;;16.00;69.40;15.00;96620.00;;;;5107908;28;20206;-84
2023/10/12 06:32:46;;;;;;;3.23;2.93;;;16.00;68.80;15.00;96617.00;;;;5104038;28;20194;-82
2023/10/12 06:35:24;;;;;;;3.17;2.33;;;16.10;69.10;15.10;96617.00;;;;5110941;28;20206;-82
2023/10/12 06:38:15;;;;;;;3.83;2.57;;;16.10;69.10;15.10;96615.00;;;;5101599;28;20226;-83
2023/10/12 06:40:48;;;;;;;4.57;3.20;;;16.10;69.10;15.20;96615.00;;;;5100485;28;20222;-83
2023/10/12 06:46:04;;;;;;;3.77;2.70;;;16.30;69.50;15.30;96625.00;;;;5097376;28;20292;-82
2023/10/12 06:48:46;;;;;;;3.50;2.53;;;16.30;69.60;15.30;96630.00;;;;5108726;28;20202;-82
2023/10/12 06:51:15;;;;;;;3.93;2.70;;;16.40;69.80;15.40;96629.00;;;;5097033;28;20198;-82
2023/10/12 06:53:45;;;;;;;3.20;2.33;;;16.40;70.00;15.50;96625.00;;;;5101198;28;20560;-82
2023/10/12 06:56:25;;;;;;;4.83;2.73;;;16.50;70.10;15.50;96633.00;;;;5090741;28;20219;-82
2023/10/12 06:59:13;;;;;;;3.50;2.60;;;16.50;70.20;15.60;96632.00;;;;5096944;28;20634;-82
2023/10/12 07:01:52;;;;;;;4.57;2.80;;;16.60;70.20;15.70;96642.00;;;;5100916;28;20634;-83
2023/10/12 07:04:27;;;;;;;4.87;3.27;;;16.60;70.30;15.70;96634.00;;;;5092339;28;20222;-82
2023/10/12 07:07:00;;;;;;;3.20;2.30;;;16.70;70.50;15.80;96639.00;;;;5095961;28;20214;-82
2023/10/12 07:09:38;;;;;;;2.90;2.60;;;16.80;70.60;15.90;96642.00;;;;5098395;28;20237;-82
2023/10/12 07:12:07;;;;;;;3.33;2.40;;;16.80;70.60;15.90;96639.00;;;;5102818;28;20195;-82
2023/10/12 07:14:38;;;;;;;3.43;2.50;;;16.90;70.70;16.00;96640.00;;;;5106451;28;20198;-82
2023/10/12 07:17:07;;;;;;;2.50;2.30;;;16.90;70.70;16.10;96647.00;;;;5105594;28;20203;-83
2023/10/12 07:19:35;;;;;;;3.50;2.20;;;17.00;70.90;16.10;96648.00;;;;5104321;28;20236;-82
2023/10/12 07:22:09;;;;;;;3.13;1.97;;;17.00;71.10;16.20;96652.00;;;;5100240;28;20711;-82
2023/10/12 07:24:38;;;;;;;3.47;2.20;;;17.10;71.20;16.30;96651.00;;;;5105312;28;20241;-82
2023/10/12 07:27:11;;;;;;;3.50;2.20;;;17.20;71.00;16.40;96648.00;;;;5106388;28;20192;-81
2023/10/12 07:29:44;;;;;;;3.17;2.27;;;17.30;70.70;16.60;96656.00;;;;5104930;28;20197;-82
2023/10/12 07:32:19;;;;;;;5.70;2.53;;;17.40;70.30;16.70;96645.00;;;;5106230;28;20207;-82
2023/10/12 07:34:53;;;;;;;3.13;2.10;;;17.50;70.30;16.90;96656.00;;;;5100776;28;20610;-81
2023/10/12 07:37:22;;;;;;;4.47;2.30;;;17.60;70.70;17.00;96647.00;;;;5099339;28;20712;-82
2023/10/12 07:39:50;;;;;;;3.67;2.30;;;17.70;71.10;17.10;96656.00;;;;5101891;28;20278;-82
2023/10/12 07:42:25;;;;;;;3.67;2.13;;;17.90;71.40;17.30;96651.00;;;;5099236;28;20191;-82
2023/10/12 07:44:55;;;;;;;4.20;1.90;;;17.90;71.70;17.40;96663.00;;;;5098944;28;20191;-82
2023/10/12 07:47:31;;;;;;;5.20;2.30;;;18.10;71.50;17.60;96652.00;;;;5102298;28;20209;-81
2023/10/12 07:50:07;;;;;;;2.67;2.17;;;18.20;71.20;17.80;96664.00;;;;5101539;28;20194;-82
2023/10/12 07:55:17;;;;;;;3.67;2.30;;;18.50;71.30;18.10;96671.00;;;;5100403;28;20222;-82
2023/10/12 07:57:45;;;;;;;3.27;2.23;;;18.70;71.00;18.20;96669.00;;;;5101514;28;20218;-81
2023/10/12 08:00:34;;;;;;;2.83;1.90;;;18.80;71.10;18.40;96669.00;;;;5098440;28;20276;-82
2023/10/12 08:03:19;;;;;;;2.83;2.00;;;19.00;70.90;18.50;96671.00;;;;5093479;28;20664;-82
2023/10/12 08:08:41;;;;;;;2.77;2.33;;;19.30;69.70;18.90;96673.00;;;;5103471;28;20198;-82
2023/10/12 08:11:09;;;;;;;2.80;2.37;;;19.50;69.40;19.00;96676.00;;;;5108124;28;20199;-81
2023/10/12 08:13:48;;;;;;;3.03;2.30;;;19.60;69.40;19.10;96670.00;;;;5107229;28;20277;-82
2023/10/12 08:16:25;;;;;;;5.27;2.40;;;19.70;69.70;19.20;96666.00;;;;5105547;28;20214;-82
2023/10/12 08:21:43;;;;;;;2.97;2.40;;;20.00;69.50;19.50;96671.00;;;;5100849;28;20673;-82
2023/10/12 08:24:22;;;;;;;3.03;2.23;;;20.10;69.70;19.60;96666.00;;;;5104416;28;20199;-82
2023/10/12 08:26:57;;;;;;;3.47;2.43;;;20.20;69.70;19.70;96676.00;;;;5103653;28;20239;-82
2023/10/12 08:35:32;;;;;;;2.30;2.10;;;20.50;68.20;20.10;96679.00;;;;5105765;27;20612;-81
2023/10/12 08:38:11;;;;;;;2.50;1.87;;;20.60;67.70;20.20;96678.00;;;;5104892;28;20703;-82
2023/10/12 08:43:43;;;;;;;3.40;2.57;;;20.90;67.30;20.40;96677.00;;;;5089361;28;20270;-82
2023/10/12 08:46:19;;;;;;;2.10;1.90;;;21.00;66.90;20.60;96676.00;;;;5107417;28;20591;-82
2023/10/12 08:48:53;;;;;;;3.37;2.13;;;21.10;66.60;20.70;96671.00;;;;5103548;28;20233;-84
2023/10/12 08:51:30;;;;;;;2.83;1.80;;;21.20;66.20;20.80;96683.00;;;;5101345;28;20186;-83
2023/10/12 08:54:07;;;;;;;5.13;2.30;;;21.30;65.30;20.90;96682.00;;;;5102297;28;20189;-82
2023/10/12 08:56:45;;;;;;;4.33;2.00;;;21.40;65.60;21.00;96680.00;;;;5106073;28;20202;-81
2023/10/12 08:59:13;;;;;;;6.80;2.30;;;21.50;65.80;21.10;96664.00;;;;5105969;28;20257;-82
2023/10/12 09:01:42;;;;;;;2.33;1.97;;;21.60;66.00;21.30;96664.00;;;;5106418;28;20580;-83
2023/10/12 09:04:13;;;;;;;3.50;2.20;;;21.70;66.40;21.40;96665.00;;;;5105854;28;20191;-83
2023/10/12 09:06:56;;;;;;;5.70;1.93;;;21.90;66.70;21.60;96662.00;;;;5106919;28;20734;-83
2023/10/12 09:12:16;;;;;;;4.33;2.00;;;22.10;66.90;21.80;96662.00;;;;5102076;28;20240;-82
2023/10/12 09:14:44;;;;;;;2.30;1.97;;;22.30;66.50;22.00;96666.00;;;;5103916;28;20194;-82
2023/10/12 09:17:26;;;;;;;3.47;2.07;;;22.40;65.80;22.20;96668.00;;;;5105838;28;20210;-82
2023/10/12 09:20:09;;;;;;;2.17;1.97;;;22.60;65.80;22.30;96663.00;;;;5100956;28;20282;-82
2023/10/12 09:22:39;;;;;;;1.97;1.60;;;22.70;65.80;22.40;96663.00;;;;5102679;28;20667;-81
2023/10/12 09:25:23;;;;;;;2.67;1.80;;;22.80;65.10;22.60;96658.00;;;;5105113;28;20241;-83
2023/10/12 09:27:55;;;;;;;2.30;1.80;;;23.00;64.90;22.80;96660.00;;;;5103465;28;20208;-82
2023/10/12 09:30:25;;;;;;;4.10;2.20;;;23.10;64.20;22.90;96658.00;;;;5104078;28;20210;-82
2023/10/12 09:35:40;;;;;;;3.00;2.00;;;23.40;64.10;23.20;96651.00;;;;5105516;27;20263;-82
2023/10/12 09:38:08;;;;;;;3.63;2.20;;;23.60;62.90;23.40;96644.00;;;;5106196;28;20246;-82
2023/10/12 09:40:43;;;;;;;4.07;1.80;;;23.70;62.60;23.60;96642.00;;;;5104828;28;20738;-83
2023/10/12 09:43:15;;;;;;;2.10;1.87;;;23.90;62.90;23.80;96651.00;;;;5105794;28;20573;-82
2023/10/12 09:45:45;;;;;;;3.00;1.93;;;24.00;61.90;24.00;96657.00;;;;5103535;28;20618;-82
2023/10/12 09:48:24;;;;;;;2.87;1.77;;;24.20;61.60;24.20;96656.00;;;;5104002;28;20200;-81
2023/10/12 09:50:56;;;;;;;5.13;1.70;;;24.40;60.00;24.40;96650.00;;;;5102630;28;20270;-82
2023/10/12 09:53:36;;;;;;;4.97;1.90;;;24.60;59.40;24.60;96649.00;;;;5104810;28;20640;-83
2023/10/12 09:56:15;;;;;;;4.37;1.67;;;24.80;59.00;24.70;96652.00;;;;5099114;28;20215;-82
2023/10/12 09:58:51;;;;;;;2.20;1.83;;;24.90;58.90;24.90;96655.00;;;;5091762;28;20687;-82
2023/10/12 10:01:29;;;;;;;5.20;2.10;;;25.10;58.40;25.10;96658.00;;;;5100494;28;20217;-82
2023/10/12 10:04:27;;;;;;;2.43;1.60;;;25.30;58.30;25.30;96667.00;;;;5096271;28;20609;-83
2023/10/12 10:06:51;;;;;;;4.00;2.27;;;25.40;58.20;25.50;96660.00;;;;5103774;28;20621;-82
2023/10/12 10:09:36;;;;;;;3.13;1.80;;;25.60;57.80;25.60;96655.00;;;;5092154;28;20243;-82
2023/10/12 10:12:08;;;;;;;3.27;1.93;;;25.80;57.90;25.80;96665.00;;;;5104383;28;20219;-83
2023/10/12 10:14:44;;;;;;;2.87;1.73;;;26.00;57.00;26.00;96668.00;;;;5102577;28;20563;-82
2023/10/12 10:17:14;;;;;;;3.83;2.20;;;26.10;55.60;26.10;96676.00;;;;5106274;28;20195;-83
2023/10/12 10:19:51;;;;;;;1.77;1.67;;;26.30;55.50;26.20;96667.00;;;;5101281;28;20280;-83
2023/10/12 10:22:21;;;;;;;3.87;2.17;;;26.40;55.10;26.30;96672.00;;;;5104880;28;20559;-83
2023/10/12 10:24:55;;;;;;;2.53;2.30;;;26.50;55.00;26.40;96671.00;;;;5104131;28;20282;-83
2023/10/12 10:27:34;;;;;;;3.23;2.20;;;26.60;54.70;26.40;96676.00;;;;5096683;28;20216;-83
2023/10/12 10:30:25;;;;;;;2.08;1.67;;;26.70;54.10;26.50;96679.00;;;;5092290;28;20609;-83
2023/10/12 10:33:12;;;;;;;3.20;1.53;;;26.80;52.80;26.50;96675.00;;;;5101756;28;20195;-83
2023/10/12 10:36:00;;;;;;;4.82;2.20;;;26.80;53.00;26.60;96673.00;;;;5090654;28;20642;-83
2023/10/12 10:38:33;;;;;;;3.93;1.90;;;26.90;52.60;26.60;96680.00;;;;5100418;28;20229;-84
2023/10/12 10:41:08;;;;;;;3.60;2.20;;;26.90;53.10;26.60;96679.00;;;;5097446;28;20201;-83
2023/10/12 10:43:38;;;;;;;3.83;2.03;;;26.90;52.60;26.60;96670.00;;;;5091422;28;20190;-82
2023/10/12 10:46:10;;;;;;;2.13;1.73;;;26.90;51.90;26.60;96672.00;;;;5098548;28;20219;-83
2023/10/12 10:48:38;;;;;;;2.70;1.70;;;26.90;51.60;26.60;96677.00;;;;5099937;28;20196;-84
2023/10/12 10:51:11;;;;;;;2.25;1.92;;;26.90;51.90;26.60;96676.00;;;;5102436;28;20214;-83
2023/10/12 10:53:39;;;;;;;3.03;1.93;;;27.00;52.10;26.70;96667.00;;;;5099722;28;20199;-83
2023/10/12 10:56:16;;;;;;;4.80;1.70;;;26.90;51.70;26.60;96663.00;;;;5103361;28;20295;-83
2023/10/12 10:58:46;;;;;;;3.60;1.77;;;27.00;52.20;26.60;96653.00;;;;5102932;28;20225;-83
2023/10/12 11:01:20;;;;;;;4.85;1.70;;;27.00;52.20;26.60;96657.00;;;;5105792;28;20580;-82
2023/10/12 11:03:47;;;;;;;2.80;2.00;;;27.00;52.00;26.60;96660.00;;;;5100557;28;20194;-83
2023/10/12 11:06:22;;;;;;;2.33;1.77;;;27.00;51.80;26.60;96644.00;;;;5104892;28;20218;-83
2023/10/12 11:09:02;;;;;;;3.30;1.93;;;26.90;51.80;26.60;96644.00;;;;5104087;28;20621;-83
2023/10/12 11:11:37;;;;;;;4.95;2.15;;;26.90;51.80;26.60;96645.00;;;;5101265;28;20925;-84
2023/10/12 11:14:05;;;;;;;2.67;2.20;;;26.90;51.90;26.60;96650.00;;;;5102945;28;20195;-83
2023/10/12 11:16:36;;;;;;;3.60;1.73;;;26.90;51.90;26.60;96637.00;;;;5104275;28;20666;-82
2023/10/12 11:19:09;;;;;;;3.75;1.95;;;26.90;51.60;26.60;96632.00;;;;5103875;28;20267;-83
2023/10/12 11:21:37;;;;;;;3.90;1.80;;;26.90;51.70;26.70;96635.00;;;;5101518;28;20222;-84
2023/10/12 11:24:09;;;;;;;3.27;2.20;;;27.00;51.70;26.80;96634.00;;;;5102653;28;20699;-84
2023/10/12 11:26:52;;;;;;;1.95;1.75;;;27.00;52.00;26.80;96631.00;;;;5104536;28;20747;-83
2023/10/12 11:29:19;;;;;;;2.87;2.10;;;27.00;51.00;26.80;96629.00;;;;5101330;28;20205;-83
2023/10/12 11:32:10;;;;;;;3.47;1.77;;;27.10;51.90;26.90;96625.00;;;;5096563;28;20206;-83
2023/10/12 11:34:52;;;;;;;2.28;1.65;;;27.10;50.50;26.90;96623.00;;;;5111715;28;20191;-82
2023/10/12 11:37:19;;;;;;;4.57;2.17;;;27.20;50.80;27.00;96631.00;;;;5104819;28;20715;-84
2023/10/12 11:39:49;;;;;;;3.65;2.20;;;27.20;50.90;27.00;96627.00;;;;5100434;28;20246;-84
2023/10/12 11:42:19;;;;;;;3.33;1.75;;;27.30;50.80;27.00;96626.00;;;;5104084;28;20195;-83
2023/10/12 11:44:51;;;;;;;2.95;1.75;;;27.30;50.90;27.10;96621.00;;;;5100212;28;20683;-84
2023/10/12 11:47:38;;;;;;;3.63;1.85;;;27.30;50.80;27.10;96619.00;;;;5099605;28;20190;-84
2023/10/12 11:50:09;;;;;;;2.25;1.90;;;27.30;50.00;27.20;96613.00;;;;5102305;28;20188;-85
2023/10/12 11:52:39;;;;;;;3.75;2.20;;;27.40;50.70;27.30;96612.00;;;;5099786;28;20198;-84
2023/10/12 11:55:18;;;;;;;2.92;2.15;;;27.50;50.30;27.40;96612.00;;;;5084630;28;20222;-84
2023/10/12 11:57:49;;;;;;;2.95;1.92;;;27.60;50.10;27.50;96613.00;;;;5101699;28;20740;-85
2023/10/12 12:00:26;;;;;;;4.93;2.05;;;27.60;50.20;27.50;96612.00;;;;5105505;28;20218;-83
2023/10/12 12:02:59;;;;;;;2.25;1.63;;;27.70;50.30;27.60;96622.00;;;;5097171;28;20195;-84
2023/10/12 12:05:29;;;;;;;2.85;2.10;;;27.70;49.80;27.60;96609.00;;;;5109141;28;20217;-84
2023/10/12 12:07:58;;;;;;;2.33;1.98;;;27.80;49.30;27.60;96615.00;;;;5102229;28;20283;-83
2023/10/12 12:10:29;;;;;;;2.70;1.77;;;27.80;49.40;27.70;96617.00;;;;5108250;28;20690;-83